Ritchie, South Africa
Current Conditions -  °F | °C
As of 3:00 AM on Saturday 25 Oct 2014 (Local Time) from FAKM Reporting Station
NA  
Wind Chill: 66°   Ceiling: NA
Heat Index: 66°   Visibility: NA
Dew Point: 36°   Wind: 5mph
Humidity: 32%   Direction: 300°WNW
Pressure: 29.97"   Gusts: NA
Location:  29.04°S, 24.6°E
Report Text: FAKM 250100Z AUTO 30004KT //// // ////// 19/02 Q1015
Loading
Personal Weather Stations






























Interactive Weather Map
Tropical Storm Tracking
New forecast layout! Learn more

10-Day Weather Forecast

Advertisements
Track Severe Weather on mobile